This is the latest recevied weather packets stored in our database for station/object SP9INZ-13. If no packets are shown the sender has not sent any weather packets the latest 10 day(s).
| Time | Temp. | Humidity | Pressure | Rain* | Wind** | Luminosity | Snow |
|---|---|---|---|---|---|---|---|
| 1777548023 | 13.89° C | 30% | 1037.8 hPa | - | - | - | - |
| 1777547063 | 12.22° C | 32% | 1038.6 hPa | - | - | - | - |
| 1777546107 | 12.22° C | 34% | 1038.7 hPa | - | - | - | - |
| 1777545147 | 11.11° C | 36% | 1039.2 hPa | - | - | - | - |
| 1777544189 | 12.22° C | 36% | 1038.6 hPa | - | - | - | - |
| 1777543234 | 11.11° C | 36% | 1039.6 hPa | - | - | - | - |
| 1777542275 | 10.56° C | 37% | 1039.6 hPa | - | - | - | - |
| 1777541316 | 10.56° C | 39% | 1039.6 hPa | - | - | - | - |
| 1777540357 | 10° C | 39% | 1039.7 hPa | - | - | - | - |
| 1777539400 | 10° C | 41% | 1040 hPa | - | - | - | - |
| 1777538448 | 9.44° C | 41% | 1040.2 hPa | - | - | - | - |
| 1777538441 | 9.44° C | 41% | 1040.2 hPa | - | - | - | - |
| 1777537484 | 9.44° C | 42% | 1040.3 hPa | - | - | - | - |
| 1777536527 | 8.89° C | 44% | 1040.4 hPa | - | - | - | - |
| 1777535567 | 8.89° C | 45% | 1040.3 hPa | - | - | - | - |
| 1777534609 | 8.33° C | 46% | 1040.3 hPa | - | - | - | - |
| 1777533651 | 8.89° C | 47% | 1040 hPa | - | - | - | - |
| 1777532694 | 7.22° C | 50% | 1041 hPa | - | - | - | - |
| 1777531737 | 6.67° C | 53% | 1040.7 hPa | - | - | - | - |
| 1777530778 | 6.11° C | 55% | 1040.7 hPa | - | - | - | - |
| 1777529820 | 7.22° C | 57% | 1039.9 hPa | - | - | - | - |
| 1777528861 | 5° C | 60% | 1040.5 hPa | - | - | - | - |
| 1777527903 | 6.11° C | 60% | 1039.7 hPa | - | - | - | - |
| 1777526946 | 5° C | 66% | 1040 hPa | - | - | - | - |
| 1777525987 | 5.56° C | 62% | 1040.4 hPa | - | - | - | - |
* Rain since midnight (hover to see other rain measurements)
** Current wind speed in m/s (hover to see current wind gust speed)